createdAt,value
2022-09-01T00:00:13.417Z,3.00
2022-09-01T00:03:01.453Z,3.50
2022-09-01T00:05:32.837Z,3.50
2022-09-01T00:08:01.375Z,3.30
2022-09-01T00:10:30.039Z,3.00
2022-09-01T00:12:59.133Z,3.40
2022-09-01T00:15:27.997Z,3.30
2022-09-01T00:17:56.342Z,3.40
2022-09-01T00:20:24.901Z,4.00
2022-09-01T00:22:53.274Z,3.80
2022-09-01T00:25:24.794Z,3.50
2022-09-01T00:27:53.304Z,3.40
2022-09-01T00:30:22.488Z,3.40
2022-09-01T00:32:51.028Z,2.90
2022-09-01T00:35:20.392Z,3.20
2022-09-01T00:37:48.857Z,3.70
2022-09-01T00:40:18.788Z,3.10
2022-09-01T00:42:49.003Z,2.70
2022-09-01T00:45:17.424Z,3.50
2022-09-01T00:47:45.777Z,2.70
2022-09-01T00:50:18.168Z,2.80
2022-09-01T00:52:55.003Z,3.20
2022-09-01T00:55:33.289Z,3.40
2022-09-01T00:58:03.969Z,2.70
2022-09-01T01:00:40.848Z,3.30
2022-09-01T01:03:13.819Z,3.40
2022-09-01T01:05:55.757Z,3.20
2022-09-01T01:08:34.544Z,3.40
2022-09-01T01:11:17.922Z,3.00
2022-09-01T01:14:12.409Z,3.40
2022-09-01T01:16:47.073Z,4.40
2022-09-01T01:20:03.253Z,3.20
2022-09-01T01:23:02.294Z,2.70
2022-09-01T01:25:44.307Z,3.30
2022-09-01T01:28:16.503Z,2.70
2022-09-01T01:30:52.438Z,3.70
2022-09-01T01:33:25.913Z,3.50
2022-09-01T01:35:57.526Z,3.00
2022-09-01T01:38:27.556Z,3.10
2022-09-01T01:40:56.376Z,3.40
2022-09-01T01:43:26.450Z,3.60
2022-09-01T01:46:02.886Z,2.70
2022-09-01T01:48:34.823Z,3.20
2022-09-01T01:51:05.846Z,3.10
2022-09-01T01:53:34.754Z,3.50
2022-09-01T01:56:03.617Z,2.50
2022-09-01T01:58:34.964Z,3.10
2022-09-01T02:01:03.735Z,3.30
2022-09-01T02:03:38.718Z,2.80
2022-09-01T02:06:12.095Z,2.50
2022-09-01T02:08:41.317Z,2.50
2022-09-01T02:11:09.637Z,3.30
2022-09-01T02:13:37.993Z,3.00
2022-09-01T02:16:13.131Z,3.10
2022-09-01T02:18:48.925Z,2.70
2022-09-01T02:21:21.290Z,2.40
2022-09-01T02:24:02.173Z,2.40
2022-09-01T02:26:43.015Z,2.30
2022-09-01T02:29:19.179Z,3.00
2022-09-01T02:31:53.692Z,2.60
2022-09-01T02:34:24.803Z,2.40
2022-09-01T02:36:56.012Z,3.00
2022-09-01T02:39:29.689Z,2.20
2022-09-01T02:41:58.580Z,2.50
2022-09-01T02:44:29.317Z,2.10
2022-09-01T02:46:58.930Z,2.60
2022-09-01T02:49:28.728Z,3.10
2022-09-01T02:52:01.844Z,2.30
2022-09-01T02:54:32.614Z,2.50
2022-09-01T02:57:01.677Z,2.80
2022-09-01T02:59:31.002Z,3.20
2022-09-01T03:01:59.573Z,3.00
2022-09-01T03:04:27.986Z,3.20
2022-09-01T03:06:58.925Z,2.90
2022-09-01T03:09:28.188Z,2.30
2022-09-01T03:11:56.576Z,2.80
2022-09-01T03:14:26.066Z,3.60
2022-09-01T03:16:54.533Z,2.60
2022-09-01T03:19:23.206Z,2.30
2022-09-01T03:21:51.803Z,2.50
2022-09-01T03:24:20.239Z,2.30
2022-09-01T03:26:50.827Z,2.30
2022-09-01T03:29:20.610Z,2.60
2022-09-01T03:31:49.600Z,2.30
2022-09-01T03:34:20.842Z,2.80
2022-09-01T03:36:50.922Z,2.50
2022-09-01T03:39:20.045Z,2.80
2022-09-01T03:41:48.801Z,3.60
2022-09-01T03:44:17.323Z,2.60
2022-09-01T03:46:46.916Z,2.50
2022-09-01T03:49:25.308Z,2.50
2022-09-01T03:51:54.600Z,2.60
2022-09-01T03:54:30.667Z,2.40
2022-09-01T03:57:00.012Z,2.80
2022-09-01T03:59:30.210Z,2.50
2022-09-01T04:02:00.437Z,2.50
2022-09-01T04:04:33.090Z,3.30
2022-09-01T04:07:01.644Z,2.20
2022-09-01T04:09:30.020Z,2.80
2022-09-01T04:11:58.798Z,2.90
2022-09-01T04:14:29.212Z,2.80
2022-09-01T04:17:17.291Z,2.40
2022-09-01T04:19:45.846Z,2.70
2022-09-01T04:22:15.675Z,2.40
2022-09-01T04:24:45.946Z,2.50
2022-09-01T04:27:18.280Z,2.40
2022-09-01T04:29:48.631Z,3.00
2022-09-01T04:32:17.026Z,3.10
2022-09-01T04:34:45.371Z,2.70
2022-09-01T04:37:18.966Z,2.50
2022-09-01T04:39:56.292Z,2.80
2022-09-01T04:42:29.186Z,3.40
2022-09-01T04:45:00.109Z,2.40
2022-09-01T04:47:35.604Z,2.20
2022-09-01T04:50:14.058Z,2.80
2022-09-01T04:52:47.928Z,2.30
2022-09-01T04:55:19.202Z,2.80
2022-09-01T04:57:49.635Z,2.60
2022-09-01T05:00:22.728Z,3.30
2022-09-01T05:03:04.707Z,2.90
2022-09-01T05:05:54.143Z,2.30
2022-09-01T05:08:24.491Z,2.50
2022-09-01T05:10:57.016Z,2.70
2022-09-01T05:13:29.710Z,3.20
2022-09-01T05:16:13.182Z,2.70
2022-09-01T05:18:47.917Z,2.30
2022-09-01T05:21:22.329Z,2.60
2022-09-01T05:23:51.904Z,2.40
2022-09-01T05:26:31.735Z,2.10
2022-09-01T05:29:13.536Z,2.80
2022-09-01T05:31:45.590Z,2.40
2022-09-01T05:34:20.112Z,2.30
2022-09-01T05:36:50.854Z,3.10
2022-09-01T05:39:20.933Z,2.70
2022-09-01T05:41:49.941Z,2.60
2022-09-01T05:44:18.911Z,2.50
2022-09-01T05:46:47.747Z,2.50
2022-09-01T05:49:18.713Z,2.50
2022-09-01T05:51:51.796Z,2.60
2022-09-01T05:54:25.314Z,3.00
2022-09-01T05:57:12.615Z,3.10
2022-09-01T05:59:53.779Z,2.60
2022-09-01T06:02:26.379Z,2.50
2022-09-01T06:04:56.995Z,3.00
2022-09-01T06:07:28.610Z,2.50
2022-09-01T06:09:57.272Z,3.10
2022-09-01T06:12:28.151Z,2.70
2022-09-01T06:14:58.423Z,2.40
2022-09-01T06:17:30.041Z,2.50
2022-09-01T06:20:13.619Z,2.20
2022-09-01T06:22:42.118Z,2.60
2022-09-01T06:25:11.060Z,2.50
2022-09-01T06:27:42.585Z,2.50
2022-09-01T06:30:20.121Z,2.60
2022-09-01T06:32:52.266Z,2.70
2022-09-01T06:35:25.212Z,2.70
2022-09-01T06:37:58.456Z,1.90
2022-09-01T06:40:36.089Z,2.10
2022-09-01T06:43:08.430Z,2.50
2022-09-01T06:45:45.213Z,1.80
2022-09-01T06:48:16.343Z,2.60
2022-09-01T06:53:35.862Z,2.30
2022-09-01T06:56:04.254Z,2.50
2022-09-01T06:58:38.316Z,2.10
2022-09-01T07:01:16.083Z,2.10
2022-09-01T07:03:51.221Z,2.20
2022-09-01T07:09:50.015Z,1.90
2022-09-01T07:12:35.287Z,1.80
2022-09-01T07:21:36.783Z,1.50
2022-09-01T07:24:08.688Z,1.80
2022-09-01T07:26:47.173Z,2.00
2022-09-01T07:29:21.855Z,2.00
2022-09-01T07:35:11.701Z,1.80
2022-09-01T07:43:33.501Z,1.00
2022-09-01T07:46:36.668Z,1.50
2022-09-01T07:49:29.619Z,2.30
2022-09-01T07:51:45.581Z,1.30
2022-09-01T07:54:14.093Z,1.40
2022-09-01T07:56:42.745Z,1.20
2022-09-01T07:59:15.303Z,1.30
2022-09-01T08:01:44.329Z,1.60
2022-09-01T08:04:13.583Z,1.10
2022-09-01T08:06:42.112Z,1.00
2022-09-01T08:09:11.982Z,1.00
2022-09-01T08:12:02.051Z,0.90
2022-09-01T08:14:34.773Z,1.10
2022-09-01T08:17:34.088Z,1.10
2022-09-01T08:19:53.680Z,1.30
2022-09-01T08:22:24.414Z,1.00
2022-09-01T08:24:53.117Z,2.00
2022-09-01T08:27:21.575Z,1.10
2022-09-01T08:29:50.013Z,1.50
2022-09-01T08:32:18.440Z,1.10
2022-09-01T08:34:46.808Z,1.00
2022-09-01T08:37:15.095Z,0.70
2022-09-01T08:39:43.587Z,1.20
2022-09-01T08:42:20.943Z,0.80
2022-09-01T08:45:20.505Z,0.80
2022-09-01T08:48:28.721Z,1.10
2022-09-01T08:50:45.180Z,1.20
2022-09-01T08:53:43.988Z,1.10
2022-09-01T08:56:14.379Z,1.00
2022-09-01T08:58:42.948Z,0.90
2022-09-01T09:01:47.661Z,0.90
2022-09-01T09:04:49.370Z,1.10
2022-09-01T09:08:15.922Z,0.80
2022-09-01T09:11:21.520Z,1.00
2022-09-01T09:14:15.731Z,1.20
2022-09-01T09:16:53.915Z,1.10
2022-09-01T09:19:36.255Z,0.90
2022-09-01T09:22:12.766Z,1.20
2022-09-01T09:25:17.530Z,0.60
2022-09-01T09:28:00.529Z,1.10
2022-09-01T09:30:32.282Z,0.80
2022-09-01T09:33:48.610Z,1.20
2022-09-01T09:36:35.820Z,1.10
2022-09-01T09:39:13.796Z,0.70
2022-09-01T09:41:44.345Z,0.90
2022-09-01T09:44:32.915Z,0.80
2022-09-01T09:47:01.457Z,0.70
2022-09-01T09:49:41.426Z,0.80
2022-09-01T09:52:19.081Z,1.00
2022-09-01T09:55:01.748Z,0.70
2022-09-01T09:57:32.286Z,0.90
2022-09-01T10:00:25.945Z,1.40
2022-09-01T10:03:04.664Z,1.30
2022-09-01T10:05:53.358Z,0.80
2022-09-01T10:08:28.674Z,0.90
2022-09-01T10:10:58.828Z,1.00
2022-09-01T10:13:31.404Z,0.90
2022-09-01T10:16:13.133Z,1.30
2022-09-01T10:18:45.179Z,1.00
2022-09-01T10:21:30.587Z,1.20
2022-09-01T10:24:20.406Z,1.10
2022-09-01T10:26:57.327Z,1.20
2022-09-01T10:29:50.833Z,1.00
2022-09-01T10:32:38.255Z,1.00
2022-09-01T10:35:20.074Z,1.10
2022-09-01T10:37:50.083Z,1.00
2022-09-01T10:40:29.854Z,1.10
2022-09-01T10:43:40.361Z,1.30
2022-09-01T10:46:15.608Z,1.20
2022-09-01T10:48:48.813Z,0.90
2022-09-01T10:51:21.118Z,1.30
2022-09-01T10:54:03.700Z,1.00
2022-09-01T10:56:52.011Z,1.10
2022-09-01T10:59:32.844Z,0.80
2022-09-01T11:02:26.378Z,0.60
2022-09-01T11:04:58.716Z,0.80
2022-09-01T11:08:00.569Z,0.60
2022-09-01T11:10:34.766Z,0.60
2022-09-01T11:13:49.080Z,0.60
2022-09-01T11:16:49.443Z,0.60
2022-09-01T11:19:31.026Z,0.50
2022-09-01T11:22:18.178Z,0.50
2022-09-01T11:25:12.964Z,0.60
2022-09-01T11:27:50.503Z,0.90
2022-09-01T11:30:31.226Z,0.70
2022-09-01T11:33:27.027Z,0.50
2022-09-01T11:36:07.061Z,1.00
2022-09-01T11:38:53.265Z,0.70
2022-09-01T11:41:45.590Z,0.70
2022-09-01T11:44:38.532Z,0.80
2022-09-01T11:47:14.572Z,0.60
2022-09-01T11:49:55.248Z,0.70
2022-09-01T11:52:30.717Z,0.70
2022-09-01T11:55:00.264Z,0.50
2022-09-01T11:57:38.178Z,0.60
2022-09-01T12:00:14.103Z,0.70
2022-09-01T12:02:55.056Z,0.80
2022-09-01T12:05:31.277Z,0.60
2022-09-01T12:08:05.432Z,0.80
2022-09-01T12:10:40.181Z,0.60
2022-09-01T12:13:15.747Z,0.60
2022-09-01T12:16:06.876Z,0.60
2022-09-01T12:18:47.489Z,0.60
2022-09-01T12:21:38.416Z,1.00
2022-09-01T12:24:18.977Z,0.60
2022-09-01T12:26:50.433Z,0.80
2022-09-01T12:29:19.527Z,0.50
2022-09-01T12:31:52.625Z,0.70
2022-09-01T12:34:59.431Z,0.50
2022-09-01T12:37:28.097Z,0.60
2022-09-01T12:39:59.336Z,0.50
2022-09-01T12:42:41.528Z,0.70
2022-09-01T12:45:13.299Z,0.60
2022-09-01T12:47:48.043Z,0.50
2022-09-01T12:50:16.964Z,0.50
2022-09-01T12:52:52.487Z,0.60
2022-09-01T12:58:29.482Z,0.60
2022-09-01T13:01:16.084Z,0.70
2022-09-01T13:04:23.056Z,0.80
2022-09-01T13:06:52.764Z,0.60
2022-09-01T13:09:21.150Z,0.70
2022-09-01T13:12:06.590Z,0.70
2022-09-01T13:14:35.562Z,1.30
2022-09-01T13:17:04.422Z,0.90
2022-09-01T13:19:32.730Z,0.70
2022-09-01T13:22:01.074Z,0.60
2022-09-01T13:24:31.620Z,0.80
2022-09-01T13:29:50.393Z,0.60
2022-09-01T13:32:22.057Z,1.00
2022-09-01T13:34:53.477Z,0.60
2022-09-01T13:37:22.957Z,0.60
2022-09-01T13:39:51.461Z,0.70
2022-09-01T13:42:19.875Z,0.60
2022-09-01T13:44:52.551Z,1.80
2022-09-01T13:47:29.194Z,0.80
2022-09-01T13:50:10.005Z,0.70
2022-09-01T13:52:43.482Z,1.10
2022-09-01T13:55:17.347Z,0.80
2022-09-01T13:57:45.707Z,0.70
2022-09-01T14:00:18.764Z,0.70
2022-09-01T14:02:50.414Z,0.80
2022-09-01T14:05:23.147Z,1.00
2022-09-01T14:07:52.980Z,0.70
2022-09-01T14:10:24.153Z,0.60
2022-09-01T14:12:52.742Z,0.60
2022-09-01T14:15:26.589Z,0.70
2022-09-01T14:17:58.124Z,0.80
2022-09-01T14:20:36.918Z,1.00
2022-09-01T14:23:08.707Z,0.80
2022-09-01T14:25:43.042Z,0.70
2022-09-01T14:28:11.984Z,1.00
2022-09-01T14:30:45.486Z,0.70
2022-09-01T14:33:14.520Z,0.70
2022-09-01T14:35:47.784Z,0.70
2022-09-01T14:40:49.435Z,0.70
2022-09-01T14:43:18.460Z,1.10
2022-09-01T14:45:48.059Z,0.80
2022-09-01T14:48:18.995Z,0.80
2022-09-01T14:50:49.959Z,0.70
2022-09-01T14:53:19.492Z,0.70
2022-09-01T14:55:50.516Z,0.90
2022-09-01T14:58:21.168Z,0.80
2022-09-01T15:00:50.166Z,0.90
2022-09-01T15:03:22.772Z,0.90
2022-09-01T15:05:53.082Z,0.50
2022-09-01T15:08:23.510Z,0.60
2022-09-01T15:10:51.896Z,0.80
2022-09-01T15:13:20.497Z,0.80
2022-09-01T15:15:48.938Z,0.80
2022-09-01T15:18:17.302Z,0.80
2022-09-01T15:20:50.964Z,0.70
2022-09-01T15:23:23.688Z,0.80
2022-09-01T15:28:22.872Z,0.80
2022-09-01T15:31:04.470Z,1.20
2022-09-01T15:33:33.441Z,0.70
2022-09-01T15:36:01.952Z,1.00
2022-09-01T15:38:31.173Z,0.90
2022-09-01T15:41:01.187Z,0.90
2022-09-01T15:43:30.375Z,1.00
2022-09-01T15:46:00.588Z,0.80
2022-09-01T15:48:35.099Z,1.20
2022-09-01T15:51:45.726Z,1.10
2022-09-01T15:54:22.190Z,0.90
2022-09-01T15:56:51.312Z,1.10
2022-09-01T15:59:20.499Z,1.00
2022-09-01T16:01:48.953Z,0.90
2022-09-01T16:04:19.851Z,1.10
2022-09-01T16:06:52.722Z,0.90
2022-09-01T16:09:21.262Z,1.10
2022-09-01T16:11:50.022Z,1.50
2022-09-01T16:14:21.422Z,0.80
2022-09-01T16:17:09.401Z,0.80
2022-09-01T16:20:13.678Z,0.80
2022-09-01T16:23:48.746Z,1.10
2022-09-01T16:26:20.444Z,1.00
2022-09-01T16:28:57.756Z,1.20
2022-09-01T16:31:33.028Z,1.10
2022-09-01T16:34:13.257Z,0.90
2022-09-01T16:36:57.389Z,0.90
2022-09-01T16:39:34.031Z,1.10
2022-09-01T16:42:49.252Z,0.90
2022-09-01T16:45:56.079Z,0.90
2022-09-01T16:48:42.328Z,1.00
2022-09-01T16:51:22.179Z,0.90
2022-09-01T16:54:42.579Z,0.70
2022-09-01T16:57:45.171Z,0.90
2022-09-01T17:00:35.215Z,0.80
2022-09-01T17:03:34.196Z,0.80
2022-09-01T17:06:29.152Z,0.90
2022-09-01T17:09:10.409Z,0.60
2022-09-01T17:11:49.187Z,0.80
2022-09-01T17:14:32.522Z,0.70
2022-09-01T17:17:17.896Z,0.70
2022-09-01T17:19:52.714Z,0.70
2022-09-01T17:25:07.806Z,1.30
2022-09-01T17:27:54.326Z,0.80
2022-09-01T17:30:22.638Z,0.90
2022-09-01T17:33:28.514Z,1.00
2022-09-01T17:36:24.256Z,0.50
2022-09-01T17:39:14.240Z,0.70
2022-09-01T17:42:11.162Z,1.00
2022-09-01T17:44:56.363Z,0.70
2022-09-01T17:47:56.196Z,1.00
2022-09-01T17:50:39.848Z,0.70
2022-09-01T17:53:34.136Z,0.80
2022-09-01T17:56:21.402Z,0.80
2022-09-01T17:59:10.546Z,0.90
2022-09-01T18:02:10.077Z,1.10
2022-09-01T18:05:12.895Z,1.10
2022-09-01T18:08:00.623Z,0.90
2022-09-01T18:11:04.524Z,1.00
2022-09-01T18:13:53.963Z,0.50
2022-09-01T18:16:35.123Z,0.70
2022-09-01T18:19:12.282Z,0.80
2022-09-01T18:21:52.155Z,0.40
2022-09-01T18:24:43.610Z,0.80
2022-09-01T18:27:12.874Z,0.60
2022-09-01T18:29:42.475Z,1.00
2022-09-01T18:32:35.182Z,0.80
2022-09-01T18:35:31.945Z,0.90
2022-09-01T18:38:13.024Z,0.70
2022-09-01T18:41:29.569Z,0.90
2022-09-01T18:47:14.511Z,0.90
2022-09-01T18:50:18.150Z,0.90
2022-09-01T18:53:17.509Z,1.10
2022-09-01T18:56:22.196Z,0.80
2022-09-01T18:59:14.550Z,0.80
2022-09-01T19:01:59.843Z,0.60
2022-09-01T19:07:16.741Z,0.90
2022-09-01T19:10:18.438Z,1.00
2022-09-01T19:12:55.675Z,0.90
2022-09-01T19:15:56.993Z,0.80
2022-09-01T19:18:47.038Z,0.80
2022-09-01T19:21:24.640Z,0.90
2022-09-01T19:24:05.962Z,0.90
2022-09-01T19:26:44.849Z,1.40
2022-09-01T19:29:23.613Z,2.30
2022-09-01T19:32:02.420Z,1.50
2022-09-01T19:34:43.088Z,1.70
2022-09-01T19:37:12.538Z,2.30
2022-09-01T19:39:45.338Z,1.50
2022-09-01T19:42:47.224Z,1.60
2022-09-01T19:45:31.003Z,1.50
2022-09-01T19:48:26.615Z,2.10
2022-09-01T19:51:01.025Z,1.50
2022-09-01T19:54:01.467Z,1.60
2022-09-01T19:56:51.545Z,1.90
2022-09-01T19:59:58.130Z,1.40
2022-09-01T20:02:35.167Z,2.20
2022-09-01T20:05:38.851Z,1.40
2022-09-01T20:08:46.731Z,1.70
2022-09-01T20:11:36.815Z,1.40
2022-09-01T20:14:32.978Z,1.50
2022-09-01T20:17:07.979Z,1.90
2022-09-01T20:20:17.652Z,2.00
2022-09-01T20:23:10.605Z,1.60
2022-09-01T20:26:14.712Z,2.40
2022-09-01T20:29:12.484Z,1.80
2022-09-01T20:31:50.227Z,1.70
2022-09-01T20:34:35.204Z,1.50
2022-09-01T20:37:18.785Z,1.40
2022-09-01T20:40:04.342Z,1.60
2022-09-01T20:45:38.608Z,1.70
2022-09-01T20:48:24.693Z,1.80
2022-09-01T20:51:18.480Z,1.80
2022-09-01T20:54:29.379Z,1.70
2022-09-01T20:57:36.227Z,1.90
2022-09-01T21:00:17.122Z,1.20
2022-09-01T21:03:20.726Z,1.90
2022-09-01T21:06:08.646Z,1.90
2022-09-01T21:08:50.976Z,2.10
2022-09-01T21:11:48.252Z,2.10
2022-09-01T21:14:31.349Z,2.20
2022-09-01T21:17:43.023Z,1.20
2022-09-01T21:20:52.873Z,1.60
2022-09-01T21:23:21.477Z,2.00
2022-09-01T21:25:50.053Z,1.70
2022-09-01T21:28:21.573Z,1.90
2022-09-01T21:30:54.167Z,1.70
2022-09-01T21:33:28.730Z,2.30
2022-09-01T21:35:59.831Z,2.10
2022-09-01T21:38:29.583Z,1.90
2022-09-01T21:41:01.741Z,2.20
2022-09-01T21:43:35.820Z,1.60
2022-09-01T21:46:06.221Z,1.70
2022-09-01T21:48:35.212Z,1.50
2022-09-01T21:51:06.629Z,1.90
2022-09-01T21:53:35.022Z,2.00
2022-09-01T21:56:04.102Z,1.60
2022-09-01T21:58:32.891Z,2.10
2022-09-01T22:01:01.896Z,1.80
2022-09-01T22:03:30.263Z,1.50
2022-09-01T22:05:58.672Z,2.00
2022-09-01T22:08:27.217Z,1.90
2022-09-01T22:10:55.927Z,2.20
2022-09-01T22:13:25.367Z,1.50
2022-09-01T22:15:55.291Z,2.20
2022-09-01T22:18:23.631Z,2.30
2022-09-01T22:21:01.272Z,1.90
2022-09-01T22:23:29.657Z,3.00
2022-09-01T22:25:58.129Z,2.30
2022-09-01T22:28:26.615Z,2.40
2022-09-01T22:30:54.974Z,2.40
2022-09-01T22:33:24.373Z,2.30
2022-09-01T22:35:56.086Z,1.70
2022-09-01T22:38:24.448Z,2.30
2022-09-01T22:40:57.292Z,2.10
2022-09-01T22:43:28.177Z,2.20
2022-09-01T22:45:58.473Z,2.20
2022-09-01T22:48:28.835Z,3.40
2022-09-01T22:50:57.471Z,2.50
2022-09-01T22:53:25.772Z,2.10
2022-09-01T22:55:54.760Z,2.20
2022-09-01T22:58:23.156Z,2.30
2022-09-01T23:00:56.087Z,3.20
2022-09-01T23:03:24.512Z,1.90
2022-09-01T23:06:08.082Z,2.20
2022-09-01T23:08:37.216Z,1.80
2022-09-01T23:11:07.521Z,2.20
2022-09-01T23:13:37.931Z,2.10
2022-09-01T23:16:10.022Z,2.40
2022-09-01T23:18:42.284Z,2.20
2022-09-01T23:21:13.235Z,2.20
2022-09-01T23:23:42.336Z,2.70
2022-09-01T23:26:13.867Z,2.10
2022-09-01T23:28:44.072Z,2.20
2022-09-01T23:31:20.385Z,2.30
2022-09-01T23:33:48.989Z,2.80
2022-09-01T23:36:20.589Z,2.20
2022-09-01T23:38:49.991Z,2.00
2022-09-01T23:41:23.822Z,2.60
2022-09-01T23:43:53.240Z,1.90
2022-09-01T23:46:28.592Z,2.20
2022-09-01T23:48:57.734Z,2.50
2022-09-01T23:51:26.464Z,2.00
2022-09-01T23:53:54.845Z,2.50
2022-09-01T23:56:27.080Z,3.30
2022-09-01T23:58:56.168Z,2.80
